sensor_id;sensor_type;location;lat;lon;timestamp;P1;durP1;ratioP1;P2;durP2;ratioP2
63012;SDS011;62113;45.624;11.700;2023-04-09T00:03:32;9.07;;;5.32;;
63012;SDS011;62113;45.624;11.700;2023-04-09T00:05:58;8.77;;;5.45;;
63012;SDS011;62113;45.624;11.700;2023-04-09T00:08:24;6.53;;;5.63;;
63012;SDS011;62113;45.624;11.700;2023-04-09T00:10:50;6.83;;;5.47;;
63012;SDS011;62113;45.624;11.700;2023-04-09T00:13:16;7.55;;;5.15;;
63012;SDS011;62113;45.624;11.700;2023-04-09T00:15:42;5.88;;;4.85;;
63012;SDS011;62113;45.624;11.700;2023-04-09T00:18:09;5.28;;;4.65;;
63012;SDS011;62113;45.624;11.700;2023-04-09T00:20:34;6.82;;;5.10;;
63012;SDS011;62113;45.624;11.700;2023-04-09T00:23:00;6.63;;;5.55;;
63012;SDS011;62113;45.624;11.700;2023-04-09T00:25:26;6.23;;;4.73;;
63012;SDS011;62113;45.624;11.700;2023-04-09T00:27:52;8.23;;;5.07;;
63012;SDS011;62113;45.624;11.700;2023-04-09T00:30:18;7.87;;;4.80;;
63012;SDS011;62113;45.624;11.700;2023-04-09T00:32:44;7.82;;;5.43;;
63012;SDS011;62113;45.624;11.700;2023-04-09T00:35:10;6.73;;;5.50;;
63012;SDS011;62113;45.624;11.700;2023-04-09T00:37:36;7.07;;;5.03;;
63012;SDS011;62113;45.624;11.700;2023-04-09T00:40:02;6.87;;;5.27;;
63012;SDS011;62113;45.624;11.700;2023-04-09T00:42:34;6.30;;;4.95;;
63012;SDS011;62113;45.624;11.700;2023-04-09T00:45:01;6.15;;;5.10;;
63012;SDS011;62113;45.624;11.700;2023-04-09T00:47:28;5.82;;;5.00;;
63012;SDS011;62113;45.624;11.700;2023-04-09T00:52:21;8.15;;;5.05;;
63012;SDS011;62113;45.624;11.700;2023-04-09T00:54:48;8.07;;;5.40;;
63012;SDS011;62113;45.624;11.700;2023-04-09T00:57:14;6.72;;;5.18;;
63012;SDS011;62113;45.624;11.700;2023-04-09T00:59:41;6.68;;;5.60;;
63012;SDS011;62113;45.624;11.700;2023-04-09T01:02:07;5.65;;;5.05;;
63012;SDS011;62113;45.624;11.700;2023-04-09T01:04:33;8.85;;;5.80;;
63012;SDS011;62113;45.624;11.700;2023-04-09T01:07:04;8.27;;;5.10;;
63012;SDS011;62113;45.624;11.700;2023-04-09T01:09:38;8.13;;;5.28;;
63012;SDS011;62113;45.624;11.700;2023-04-09T01:22:48;6.10;;;5.47;;
63012;SDS011;62113;45.624;11.700;2023-04-09T01:30:44;6.57;;;5.85;;
63012;SDS011;62113;45.624;11.700;2023-04-09T01:33:14;5.88;;;5.28;;
63012;SDS011;62113;45.624;11.700;2023-04-09T01:35:42;6.30;;;5.60;;
63012;SDS011;62113;45.624;11.700;2023-04-09T01:38:10;6.63;;;5.90;;
63012;SDS011;62113;45.624;11.700;2023-04-09T01:40:37;9.77;;;5.78;;
63012;SDS011;62113;45.624;11.700;2023-04-09T01:43:03;13.48;;;5.65;;
63012;SDS011;62113;45.624;11.700;2023-04-09T01:45:30;7.15;;;4.80;;
63012;SDS011;62113;45.624;11.700;2023-04-09T01:47:57;7.78;;;5.20;;
63012;SDS011;62113;45.624;11.700;2023-04-09T01:50:23;5.53;;;4.53;;
63012;SDS011;62113;45.624;11.700;2023-04-09T01:52:49;6.00;;;4.85;;
63012;SDS011;62113;45.624;11.700;2023-04-09T01:55:15;6.17;;;5.33;;
63012;SDS011;62113;45.624;11.700;2023-04-09T01:57:40;6.65;;;5.15;;
63012;SDS011;62113;45.624;11.700;2023-04-09T02:00:06;5.97;;;5.30;;
63012;SDS011;62113;45.624;11.700;2023-04-09T02:05:06;7.28;;;5.78;;
63012;SDS011;62113;45.624;11.700;2023-04-09T02:07:38;9.93;;;5.20;;
63012;SDS011;62113;45.624;11.700;2023-04-09T02:10:08;6.75;;;5.03;;
63012;SDS011;62113;45.624;11.700;2023-04-09T02:12:36;7.28;;;5.30;;
63012;SDS011;62113;45.624;11.700;2023-04-09T02:15:04;6.13;;;5.20;;
63012;SDS011;62113;45.624;11.700;2023-04-09T02:17:31;6.68;;;4.95;;
63012;SDS011;62113;45.624;11.700;2023-04-09T02:19:57;7.70;;;5.10;;
63012;SDS011;62113;45.624;11.700;2023-04-09T02:22:22;9.25;;;5.75;;
63012;SDS011;62113;45.624;11.700;2023-04-09T02:24:48;5.22;;;4.68;;
63012;SDS011;62113;45.624;11.700;2023-04-09T02:27:13;6.85;;;5.60;;
63012;SDS011;62113;45.624;11.700;2023-04-09T02:29:39;7.55;;;5.32;;
63012;SDS011;62113;45.624;11.700;2023-04-09T02:32:05;6.88;;;5.25;;
63012;SDS011;62113;45.624;11.700;2023-04-09T02:34:31;7.03;;;5.80;;
63012;SDS011;62113;45.624;11.700;2023-04-09T02:36:56;5.95;;;5.18;;
63012;SDS011;62113;45.624;11.700;2023-04-09T02:39:22;8.43;;;5.45;;
63012;SDS011;62113;45.624;11.700;2023-04-09T02:41:48;13.93;;;5.15;;
63012;SDS011;62113;45.624;11.700;2023-04-09T02:44:13;6.43;;;5.10;;
63012;SDS011;62113;45.624;11.700;2023-04-09T02:46:39;5.77;;;4.73;;
63012;SDS011;62113;45.624;11.700;2023-04-09T02:49:05;6.13;;;5.32;;
63012;SDS011;62113;45.624;11.700;2023-04-09T02:51:32;8.98;;;5.70;;
63012;SDS011;62113;45.624;11.700;2023-04-09T02:54:02;7.15;;;5.72;;
63012;SDS011;62113;45.624;11.700;2023-04-09T02:56:28;7.32;;;5.47;;
63012;SDS011;62113;45.624;11.700;2023-04-09T02:58:53;8.18;;;6.20;;
63012;SDS011;62113;45.624;11.700;2023-04-09T03:01:19;7.83;;;5.50;;
63012;SDS011;62113;45.624;11.700;2023-04-09T03:03:46;7.60;;;5.00;;
63012;SDS011;62113;45.624;11.700;2023-04-09T03:06:12;6.50;;;5.32;;
63012;SDS011;62113;45.624;11.700;2023-04-09T03:08:38;5.15;;;4.68;;
63012;SDS011;62113;45.624;11.700;2023-04-09T03:11:03;5.00;;;4.40;;
63012;SDS011;62113;45.624;11.700;2023-04-09T03:13:29;5.13;;;4.65;;
63012;SDS011;62113;45.624;11.700;2023-04-09T03:15:55;4.80;;;4.30;;
63012;SDS011;62113;45.624;11.700;2023-04-09T03:18:20;6.75;;;5.10;;
63012;SDS011;62113;45.624;11.700;2023-04-09T03:20:46;5.00;;;4.50;;
63012;SDS011;62113;45.624;11.700;2023-04-09T03:23:11;5.10;;;4.60;;
63012;SDS011;62113;45.624;11.700;2023-04-09T03:25:37;5.45;;;4.43;;
63012;SDS011;62113;45.624;11.700;2023-04-09T03:28:03;4.80;;;4.30;;
63012;SDS011;62113;45.624;11.700;2023-04-09T03:30:28;4.88;;;4.10;;
63012;SDS011;62113;45.624;11.700;2023-04-09T03:32:54;5.78;;;4.05;;
63012;SDS011;62113;45.624;11.700;2023-04-09T03:35:20;3.97;;;3.67;;
63012;SDS011;62113;45.624;11.700;2023-04-09T03:37:46;5.20;;;3.72;;
63012;SDS011;62113;45.624;11.700;2023-04-09T03:40:12;3.83;;;3.53;;
63012;SDS011;62113;45.624;11.700;2023-04-09T03:42:37;3.50;;;3.20;;
63012;SDS011;62113;45.624;11.700;2023-04-09T03:45:03;4.43;;;3.33;;
63012;SDS011;62113;45.624;11.700;2023-04-09T03:47:29;3.55;;;3.25;;
63012;SDS011;62113;45.624;11.700;2023-04-09T03:49:55;3.45;;;3.15;;
63012;SDS011;62113;45.624;11.700;2023-04-09T03:52:20;4.05;;;3.40;;
63012;SDS011;62113;45.624;11.700;2023-04-09T03:54:46;4.10;;;3.65;;
63012;SDS011;62113;45.624;11.700;2023-04-09T03:57:12;4.68;;;3.40;;
63012;SDS011;62113;45.624;11.700;2023-04-09T03:59:37;4.00;;;3.63;;
63012;SDS011;62113;45.624;11.700;2023-04-09T04:02:03;5.10;;;3.75;;
63012;SDS011;62113;45.624;11.700;2023-04-09T04:04:29;5.97;;;4.25;;
63012;SDS011;62113;45.624;11.700;2023-04-09T04:06:54;7.57;;;4.40;;
63012;SDS011;62113;45.624;11.700;2023-04-09T04:09:20;4.28;;;3.47;;
63012;SDS011;62113;45.624;11.700;2023-04-09T04:11:46;4.05;;;3.75;;
63012;SDS011;62113;45.624;11.700;2023-04-09T04:14:12;6.97;;;4.22;;
63012;SDS011;62113;45.624;11.700;2023-04-09T04:16:39;4.82;;;3.80;;
63012;SDS011;62113;45.624;11.700;2023-04-09T04:19:05;4.28;;;3.88;;
63012;SDS011;62113;45.624;11.700;2023-04-09T04:21:30;3.97;;;3.45;;
63012;SDS011;62113;45.624;11.700;2023-04-09T04:23:56;3.83;;;3.20;;
63012;SDS011;62113;45.624;11.700;2023-04-09T04:26:22;5.95;;;3.42;;
63012;SDS011;62113;45.624;11.700;2023-04-09T04:28:47;4.65;;;3.40;;
63012;SDS011;62113;45.624;11.700;2023-04-09T04:31:13;3.10;;;2.80;;
63012;SDS011;62113;45.624;11.700;2023-04-09T04:33:39;3.70;;;3.40;;
63012;SDS011;62113;45.624;11.700;2023-04-09T04:36:10;2.70;;;2.53;;
63012;SDS011;62113;45.624;11.700;2023-04-09T04:38:37;3.35;;;3.03;;
63012;SDS011;62113;45.624;11.700;2023-04-09T04:41:05;3.58;;;3.28;;
63012;SDS011;62113;45.624;11.700;2023-04-09T04:43:30;3.47;;;3.17;;
63012;SDS011;62113;45.624;11.700;2023-04-09T04:45:56;3.58;;;3.28;;
63012;SDS011;62113;45.624;11.700;2023-04-09T04:48:22;2.80;;;2.60;;
63012;SDS011;62113;45.624;11.700;2023-04-09T04:50:55;4.97;;;3.33;;
63012;SDS011;62113;45.624;11.700;2023-04-09T04:53:24;3.08;;;2.88;;
63012;SDS011;62113;45.624;11.700;2023-04-09T04:55:51;3.47;;;3.17;;
63012;SDS011;62113;45.624;11.700;2023-04-09T04:58:17;3.75;;;3.38;;
63012;SDS011;62113;45.624;11.700;2023-04-09T05:00:43;4.63;;;2.90;;
63012;SDS011;62113;45.624;11.700;2023-04-09T05:03:09;3.40;;;3.10;;
63012;SDS011;62113;45.624;11.700;2023-04-09T05:05:35;4.57;;;3.03;;
63012;SDS011;62113;45.624;11.700;2023-04-09T05:08:00;6.13;;;3.35;;
63012;SDS011;62113;45.624;11.700;2023-04-09T05:10:26;4.10;;;3.70;;
63012;SDS011;62113;45.624;11.700;2023-04-09T05:12:51;4.22;;;3.42;;
63012;SDS011;62113;45.624;11.700;2023-04-09T05:15:17;5.60;;;3.38;;
63012;SDS011;62113;45.624;11.700;2023-04-09T05:17:43;4.85;;;3.90;;
63012;SDS011;62113;45.624;11.700;2023-04-09T05:20:08;5.57;;;3.73;;
63012;SDS011;62113;45.624;11.700;2023-04-09T05:22:35;3.92;;;3.50;;
63012;SDS011;62113;45.624;11.700;2023-04-09T05:25:00;4.13;;;3.67;;
63012;SDS011;62113;45.624;11.700;2023-04-09T05:27:27;9.57;;;3.40;;
63012;SDS011;62113;45.624;11.700;2023-04-09T05:29:53;6.03;;;5.20;;
63012;SDS011;62113;45.624;11.700;2023-04-09T05:32:18;8.23;;;5.75;;
63012;SDS011;62113;45.624;11.700;2023-04-09T05:34:44;8.10;;;6.22;;
63012;SDS011;62113;45.624;11.700;2023-04-09T05:37:09;5.72;;;4.95;;
63012;SDS011;62113;45.624;11.700;2023-04-09T05:39:35;8.60;;;5.13;;
63012;SDS011;62113;45.624;11.700;2023-04-09T05:42:01;8.55;;;5.30;;
63012;SDS011;62113;45.624;11.700;2023-04-09T05:44:26;7.40;;;5.13;;
63012;SDS011;62113;45.624;11.700;2023-04-09T05:46:52;6.77;;;5.17;;
63012;SDS011;62113;45.624;11.700;2023-04-09T05:49:17;5.93;;;5.03;;
63012;SDS011;62113;45.624;11.700;2023-04-09T05:51:43;6.57;;;4.40;;
63012;SDS011;62113;45.624;11.700;2023-04-09T05:54:09;4.35;;;3.95;;
63012;SDS011;62113;45.624;11.700;2023-04-09T05:56:34;4.55;;;4.15;;
63012;SDS011;62113;45.624;11.700;2023-04-09T05:59:00;4.30;;;3.83;;
63012;SDS011;62113;45.624;11.700;2023-04-09T06:01:26;4.95;;;4.45;;
63012;SDS011;62113;45.624;11.700;2023-04-09T06:03:51;4.10;;;3.70;;
63012;SDS011;62113;45.624;11.700;2023-04-09T06:06:17;5.32;;;4.22;;
63012;SDS011;62113;45.624;11.700;2023-04-09T06:08:43;3.72;;;3.42;;
63012;SDS011;62113;45.624;11.700;2023-04-09T06:11:09;5.00;;;4.15;;
63012;SDS011;62113;45.624;11.700;2023-04-09T06:16:05;8.13;;;4.73;;
63012;SDS011;62113;45.624;11.700;2023-04-09T06:18:32;6.55;;;4.93;;
63012;SDS011;62113;45.624;11.700;2023-04-09T06:21:04;5.03;;;4.05;;
63012;SDS011;62113;45.624;11.700;2023-04-09T06:23:32;5.97;;;5.32;;
63012;SDS011;62113;45.624;11.700;2023-04-09T06:28:24;7.27;;;4.47;;
63012;SDS011;62113;45.624;11.700;2023-04-09T06:30:50;8.52;;;4.80;;
63012;SDS011;62113;45.624;11.700;2023-04-09T06:33:17;5.13;;;4.22;;
63012;SDS011;62113;45.624;11.700;2023-04-09T06:35:43;4.25;;;3.72;;
63012;SDS011;62113;45.624;11.700;2023-04-09T06:38:08;9.98;;;6.13;;
63012;SDS011;62113;45.624;11.700;2023-04-09T06:40:37;4.75;;;4.35;;
63012;SDS011;62113;45.624;11.700;2023-04-09T06:43:03;3.45;;;3.15;;
63012;SDS011;62113;45.624;11.700;2023-04-09T06:45:30;3.20;;;3.00;;
63012;SDS011;62113;45.624;11.700;2023-04-09T06:47:56;2.40;;;2.30;;
63012;SDS011;62113;45.624;11.700;2023-04-09T06:50:22;3.70;;;3.40;;
63012;SDS011;62113;45.624;11.700;2023-04-09T06:52:48;5.63;;;2.73;;
63012;SDS011;62113;45.624;11.700;2023-04-09T06:55:13;2.60;;;2.40;;
63012;SDS011;62113;45.624;11.700;2023-04-09T06:57:39;2.70;;;2.50;;
63012;SDS011;62113;45.624;11.700;2023-04-09T07:00:05;2.78;;;2.53;;
63012;SDS011;62113;45.624;11.700;2023-04-09T07:02:32;5.05;;;2.40;;
63012;SDS011;62113;45.624;11.700;2023-04-09T07:04:58;2.20;;;2.10;;
63012;SDS011;62113;45.624;11.700;2023-04-09T07:07:23;2.33;;;2.23;;
63012;SDS011;62113;45.624;11.700;2023-04-09T07:09:49;2.77;;;2.20;;
63012;SDS011;62113;45.624;11.700;2023-04-09T07:12:29;2.47;;;2.28;;
63012;SDS011;62113;45.624;11.700;2023-04-09T07:15:03;2.22;;;2.10;;
63012;SDS011;62113;45.624;11.700;2023-04-09T07:17:30;2.28;;;2.00;;
63012;SDS011;62113;45.624;11.700;2023-04-09T07:19:56;2.50;;;2.30;;
63012;SDS011;62113;45.624;11.700;2023-04-09T07:22:22;3.40;;;3.10;;
63012;SDS011;62113;45.624;11.700;2023-04-09T07:24:49;2.47;;;2.28;;
63012;SDS011;62113;45.624;11.700;2023-04-09T07:27:18;2.20;;;2.10;;
63012;SDS011;62113;45.624;11.700;2023-04-09T07:29:45;3.47;;;2.13;;
63012;SDS011;62113;45.624;11.700;2023-04-09T07:32:11;2.23;;;2.13;;
63012;SDS011;62113;45.624;11.700;2023-04-09T07:34:36;4.47;;;3.40;;
63012;SDS011;62113;45.624;11.700;2023-04-09T07:37:02;3.53;;;2.53;;
63012;SDS011;62113;45.624;11.700;2023-04-09T07:39:28;2.37;;;2.17;;
63012;SDS011;62113;45.624;11.700;2023-04-09T07:41:53;3.77;;;3.23;;
63012;SDS011;62113;45.624;11.700;2023-04-09T07:44:20;3.03;;;2.72;;
63012;SDS011;62113;45.624;11.700;2023-04-09T07:46:45;2.50;;;2.30;;
63012;SDS011;62113;45.624;11.700;2023-04-09T07:49:11;2.00;;;1.90;;
63012;SDS011;62113;45.624;11.700;2023-04-09T07:51:37;1.80;;;1.70;;
63012;SDS011;62113;45.624;11.700;2023-04-09T07:54:02;2.90;;;2.10;;
63012;SDS011;62113;45.624;11.700;2023-04-09T07:56:28;1.70;;;1.60;;
63012;SDS011;62113;45.624;11.700;2023-04-09T07:58:53;1.60;;;1.50;;
63012;SDS011;62113;45.624;11.700;2023-04-09T08:01:19;1.58;;;1.48;;
63012;SDS011;62113;45.624;11.700;2023-04-09T08:03:48;1.40;;;1.40;;
63012;SDS011;62113;45.624;11.700;2023-04-09T08:06:14;1.13;;;1.13;;
63012;SDS011;62113;45.624;11.700;2023-04-09T08:08:40;1.75;;;1.13;;
63012;SDS011;62113;45.624;11.700;2023-04-09T08:11:06;0.90;;;0.90;;
63012;SDS011;62113;45.624;11.700;2023-04-09T08:13:32;1.48;;;1.38;;
63012;SDS011;62113;45.624;11.700;2023-04-09T08:16:01;1.90;;;1.80;;
63012;SDS011;62113;45.624;11.700;2023-04-09T08:18:26;1.10;;;1.10;;
63012;SDS011;62113;45.624;11.700;2023-04-09T08:20:53;1.20;;;1.20;;
63012;SDS011;62113;45.624;11.700;2023-04-09T08:23:19;1.48;;;1.38;;
63012;SDS011;62113;45.624;11.700;2023-04-09T08:25:45;4.72;;;2.83;;
63012;SDS011;62113;45.624;11.700;2023-04-09T08:28:11;1.20;;;1.20;;
63012;SDS011;62113;45.624;11.700;2023-04-09T08:30:36;1.33;;;1.20;;
63012;SDS011;62113;45.624;11.700;2023-04-09T08:35:30;1.20;;;1.20;;
63012;SDS011;62113;45.624;11.700;2023-04-09T08:37:57;1.13;;;1.13;;
63012;SDS011;62113;45.624;11.700;2023-04-09T08:40:23;0.85;;;0.85;;
63012;SDS011;62113;45.624;11.700;2023-04-09T08:45:18;1.00;;;1.00;;
63012;SDS011;62113;45.624;11.700;2023-04-09T08:47:43;1.20;;;1.20;;
63012;SDS011;62113;45.624;11.700;2023-04-09T08:50:10;1.10;;;1.10;;
63012;SDS011;62113;45.624;11.700;2023-04-09T08:52:37;1.17;;;1.17;;
63012;SDS011;62113;45.624;11.700;2023-04-09T08:55:04;1.15;;;1.08;;
63012;SDS011;62113;45.624;11.700;2023-04-09T08:57:35;1.08;;;1.08;;
63012;SDS011;62113;45.624;11.700;2023-04-09T09:00:05;1.40;;;1.30;;
63012;SDS011;62113;45.624;11.700;2023-04-09T09:02:32;1.38;;;1.27;;
63012;SDS011;62113;45.624;11.700;2023-04-09T09:04:57;1.40;;;1.30;;
63012;SDS011;62113;45.624;11.700;2023-04-09T09:07:26;1.30;;;1.23;;
63012;SDS011;62113;45.624;11.700;2023-04-09T09:10:02;1.40;;;1.30;;
63012;SDS011;62113;45.624;11.700;2023-04-09T09:12:31;1.20;;;1.20;;
63012;SDS011;62113;45.624;11.700;2023-04-09T09:15:23;1.10;;;1.10;;
63012;SDS011;62113;45.624;11.700;2023-04-09T09:17:52;1.73;;;1.63;;
63012;SDS011;62113;45.624;11.700;2023-04-09T09:20:20;1.77;;;1.67;;
63012;SDS011;62113;45.624;11.700;2023-04-09T09:22:47;1.55;;;1.45;;
63012;SDS011;62113;45.624;11.700;2023-04-09T09:25:14;1.50;;;1.40;;
63012;SDS011;62113;45.624;11.700;2023-04-09T09:27:40;1.47;;;1.40;;
63012;SDS011;62113;45.624;11.700;2023-04-09T09:30:07;3.25;;;2.95;;
63012;SDS011;62113;45.624;11.700;2023-04-09T09:32:35;1.55;;;1.45;;
63012;SDS011;62113;45.624;11.700;2023-04-09T09:35:01;1.70;;;1.60;;
63012;SDS011;62113;45.624;11.700;2023-04-09T09:37:29;2.95;;;1.98;;
63012;SDS011;62113;45.624;11.700;2023-04-09T09:39:55;1.48;;;1.38;;
63012;SDS011;62113;45.624;11.700;2023-04-09T09:42:24;1.10;;;1.10;;
63012;SDS011;62113;45.624;11.700;2023-04-09T09:44:51;2.97;;;1.30;;
63012;SDS011;62113;45.624;11.700;2023-04-09T09:47:18;1.23;;;1.23;;
63012;SDS011;62113;45.624;11.700;2023-04-09T09:49:46;1.45;;;1.38;;
63012;SDS011;62113;45.624;11.700;2023-04-09T09:52:16;1.65;;;1.55;;
63012;SDS011;62113;45.624;11.700;2023-04-09T09:54:54;3.33;;;3.03;;
63012;SDS011;62113;45.624;11.700;2023-04-09T09:57:25;11.43;;;8.18;;
63012;SDS011;62113;45.624;11.700;2023-04-09T09:59:54;2.55;;;2.35;;
63012;SDS011;62113;45.624;11.700;2023-04-09T10:02:27;1.27;;;1.27;;
63012;SDS011;62113;45.624;11.700;2023-04-09T10:04:59;1.17;;;1.17;;
63012;SDS011;62113;45.624;11.700;2023-04-09T10:07:25;2.40;;;1.42;;
63012;SDS011;62113;45.624;11.700;2023-04-09T10:09:52;1.65;;;1.55;;
63012;SDS011;62113;45.624;11.700;2023-04-09T10:12:20;1.50;;;1.45;;
63012;SDS011;62113;45.624;11.700;2023-04-09T10:14:50;1.63;;;1.52;;
63012;SDS011;62113;45.624;11.700;2023-04-09T10:17:17;6.88;;;5.03;;
63012;SDS011;62113;45.624;11.700;2023-04-09T10:19:45;2.17;;;2.00;;
63012;SDS011;62113;45.624;11.700;2023-04-09T10:22:19;1.73;;;1.63;;
63012;SDS011;62113;45.624;11.700;2023-04-09T10:24:47;2.00;;;1.90;;
63012;SDS011;62113;45.624;11.700;2023-04-09T10:27:14;1.90;;;1.80;;
63012;SDS011;62113;45.624;11.700;2023-04-09T10:29:47;1.67;;;1.60;;
63012;SDS011;62113;45.624;11.700;2023-04-09T10:32:22;1.77;;;1.67;;
63012;SDS011;62113;45.624;11.700;2023-04-09T10:34:50;2.20;;;1.98;;
63012;SDS011;62113;45.624;11.700;2023-04-09T10:37:21;2.35;;;2.15;;
63012;SDS011;62113;45.624;11.700;2023-04-09T10:39:50;1.92;;;1.83;;
63012;SDS011;62113;45.624;11.700;2023-04-09T10:42:21;1.90;;;1.80;;
63012;SDS011;62113;45.624;11.700;2023-04-09T10:47:39;2.28;;;2.08;;
63012;SDS011;62113;45.624;11.700;2023-04-09T10:50:19;1.90;;;1.80;;
63012;SDS011;62113;45.624;11.700;2023-04-09T10:52:52;2.13;;;2.03;;
63012;SDS011;62113;45.624;11.700;2023-04-09T10:55:38;2.50;;;2.30;;
63012;SDS011;62113;45.624;11.700;2023-04-09T10:58:08;2.05;;;1.95;;
63012;SDS011;62113;45.624;11.700;2023-04-09T11:00:38;2.10;;;2.00;;
63012;SDS011;62113;45.624;11.700;2023-04-09T11:08:29;2.50;;;2.30;;
63012;SDS011;62113;45.624;11.700;2023-04-09T11:10:56;2.60;;;2.40;;
63012;SDS011;62113;45.624;11.700;2023-04-09T11:13:23;2.10;;;2.00;;
63012;SDS011;62113;45.624;11.700;2023-04-09T11:15:49;2.57;;;1.80;;
63012;SDS011;62113;45.624;11.700;2023-04-09T11:18:18;2.00;;;1.90;;
63012;SDS011;62113;45.624;11.700;2023-04-09T11:20:52;2.20;;;2.10;;
63012;SDS011;62113;45.624;11.700;2023-04-09T11:23:25;3.15;;;1.98;;
63012;SDS011;62113;45.624;11.700;2023-04-09T11:25:52;2.20;;;2.10;;
63012;SDS011;62113;45.624;11.700;2023-04-09T11:28:19;5.07;;;2.10;;
63012;SDS011;62113;45.624;11.700;2023-04-09T11:30:45;2.90;;;2.65;;
63012;SDS011;62113;45.624;11.700;2023-04-09T11:33:11;3.00;;;2.80;;
63012;SDS011;62113;45.624;11.700;2023-04-09T11:35:37;4.63;;;3.17;;
63012;SDS011;62113;45.624;11.700;2023-04-09T11:38:06;1.93;;;1.83;;
63012;SDS011;62113;45.624;11.700;2023-04-09T11:40:32;2.90;;;2.60;;
63012;SDS011;62113;45.624;11.700;2023-04-09T11:42:58;1.93;;;1.83;;
63012;SDS011;62113;45.624;11.700;2023-04-09T11:45:26;2.08;;;1.90;;
63012;SDS011;62113;45.624;11.700;2023-04-09T11:47:53;2.20;;;2.10;;
63012;SDS011;62113;45.624;11.700;2023-04-09T11:50:19;2.33;;;2.13;;
63012;SDS011;62113;45.624;11.700;2023-04-09T11:52:46;1.90;;;1.77;;
63012;SDS011;62113;45.624;11.700;2023-04-09T11:55:21;2.20;;;1.80;;
63012;SDS011;62113;45.624;11.700;2023-04-09T11:57:48;2.40;;;2.20;;
63012;SDS011;62113;45.624;11.700;2023-04-09T12:00:16;1.92;;;1.70;;
63012;SDS011;62113;45.624;11.700;2023-04-09T12:02:43;2.05;;;1.83;;
63012;SDS011;62113;45.624;11.700;2023-04-09T12:05:11;2.83;;;1.90;;
63012;SDS011;62113;45.624;11.700;2023-04-09T12:07:44;1.83;;;1.73;;
63012;SDS011;62113;45.624;11.700;2023-04-09T12:10:10;2.03;;;1.63;;
63012;SDS011;62113;45.624;11.700;2023-04-09T12:12:40;1.83;;;1.63;;
63012;SDS011;62113;45.624;11.700;2023-04-09T12:17:45;2.20;;;1.77;;
63012;SDS011;62113;45.624;11.700;2023-04-09T12:20:36;3.20;;;2.50;;
63012;SDS011;62113;45.624;11.700;2023-04-09T12:23:03;3.53;;;2.03;;
63012;SDS011;62113;45.624;11.700;2023-04-09T12:30:22;2.00;;;1.90;;
63012;SDS011;62113;45.624;11.700;2023-04-09T12:32:49;2.10;;;1.90;;
63012;SDS011;62113;45.624;11.700;2023-04-09T12:35:14;2.15;;;1.98;;
63012;SDS011;62113;45.624;11.700;2023-04-09T12:37:41;2.50;;;2.30;;
63012;SDS011;62113;45.624;11.700;2023-04-09T12:40:07;1.92;;;1.80;;
63012;SDS011;62113;45.624;11.700;2023-04-09T12:42:32;2.70;;;2.00;;
63012;SDS011;62113;45.624;11.700;2023-04-09T12:44:58;2.00;;;1.90;;
63012;SDS011;62113;45.624;11.700;2023-04-09T12:47:24;1.90;;;1.80;;
63012;SDS011;62113;45.624;11.700;2023-04-09T12:49:49;2.33;;;2.13;;
63012;SDS011;62113;45.624;11.700;2023-04-09T12:52:15;2.27;;;2.03;;
63012;SDS011;62113;45.624;11.700;2023-04-09T12:54:42;2.20;;;2.10;;
63012;SDS011;62113;45.624;11.700;2023-04-09T12:57:08;4.70;;;2.42;;
63012;SDS011;62113;45.624;11.700;2023-04-09T12:59:34;2.80;;;2.50;;
63012;SDS011;62113;45.624;11.700;2023-04-09T13:02:00;2.47;;;2.27;;
63012;SDS011;62113;45.624;11.700;2023-04-09T13:04:26;2.10;;;1.93;;
63012;SDS011;62113;45.624;11.700;2023-04-09T13:06:51;2.30;;;2.20;;
63012;SDS011;62113;45.624;11.700;2023-04-09T13:09:17;2.17;;;2.07;;
63012;SDS011;62113;45.624;11.700;2023-04-09T13:11:42;2.30;;;2.13;;
63012;SDS011;62113;45.624;11.700;2023-04-09T13:14:08;2.50;;;2.30;;
63012;SDS011;62113;45.624;11.700;2023-04-09T13:16:38;4.75;;;2.38;;
63012;SDS011;62113;45.624;11.700;2023-04-09T13:19:05;5.68;;;2.30;;
63012;SDS011;62113;45.624;11.700;2023-04-09T13:21:31;4.25;;;2.42;;
63012;SDS011;62113;45.624;11.700;2023-04-09T13:23:57;2.30;;;2.20;;
63012;SDS011;62113;45.624;11.700;2023-04-09T13:26:23;2.30;;;2.20;;
63012;SDS011;62113;45.624;11.700;2023-04-09T13:28:48;2.67;;;2.47;;
63012;SDS011;62113;45.624;11.700;2023-04-09T13:31:15;3.50;;;2.55;;
63012;SDS011;62113;45.624;11.700;2023-04-09T13:33:41;2.53;;;2.33;;
63012;SDS011;62113;45.624;11.700;2023-04-09T13:36:07;2.50;;;2.30;;
63012;SDS011;62113;45.624;11.700;2023-04-09T13:38:32;2.60;;;2.40;;
63012;SDS011;62113;45.624;11.700;2023-04-09T13:40:58;3.47;;;2.40;;
63012;SDS011;62113;45.624;11.700;2023-04-09T13:43:24;2.58;;;2.38;;
63012;SDS011;62113;45.624;11.700;2023-04-09T13:45:52;3.00;;;2.58;;
63012;SDS011;62113;45.624;11.700;2023-04-09T13:48:21;2.67;;;2.47;;
63012;SDS011;62113;45.624;11.700;2023-04-09T13:50:47;2.28;;;2.10;;
63012;SDS011;62113;45.624;11.700;2023-04-09T13:53:13;2.60;;;2.40;;
63012;SDS011;62113;45.624;11.700;2023-04-09T13:55:38;2.60;;;2.40;;
63012;SDS011;62113;45.624;11.700;2023-04-09T13:58:04;4.33;;;2.97;;
63012;SDS011;62113;45.624;11.700;2023-04-09T14:00:33;11.40;;;6.63;;
63012;SDS011;62113;45.624;11.700;2023-04-09T14:03:00;28.13;;;11.50;;
63012;SDS011;62113;45.624;11.700;2023-04-09T14:05:27;2.97;;;2.75;;
63012;SDS011;62113;45.624;11.700;2023-04-09T14:07:53;7.05;;;2.67;;
63012;SDS011;62113;45.624;11.700;2023-04-09T14:10:19;7.03;;;2.63;;
63012;SDS011;62113;45.624;11.700;2023-04-09T14:12:44;2.30;;;2.10;;
63012;SDS011;62113;45.624;11.700;2023-04-09T14:15:10;5.13;;;2.30;;
63012;SDS011;62113;45.624;11.700;2023-04-09T14:17:36;2.40;;;2.20;;
63012;SDS011;62113;45.624;11.700;2023-04-09T14:20:01;5.30;;;2.70;;
63012;SDS011;62113;45.624;11.700;2023-04-09T14:22:28;4.00;;;2.55;;
63012;SDS011;62113;45.624;11.700;2023-04-09T14:24:54;3.23;;;2.50;;
63012;SDS011;62113;45.624;11.700;2023-04-09T14:27:19;2.53;;;2.33;;
63012;SDS011;62113;45.624;11.700;2023-04-09T14:29:45;2.43;;;2.30;;
63012;SDS011;62113;45.624;11.700;2023-04-09T14:32:11;2.80;;;2.60;;
63012;SDS011;62113;45.624;11.700;2023-04-09T14:34:36;3.53;;;3.23;;
63012;SDS011;62113;45.624;11.700;2023-04-09T14:37:02;3.87;;;2.77;;
63012;SDS011;62113;45.624;11.700;2023-04-09T14:39:27;9.90;;;2.97;;
63012;SDS011;62113;45.624;11.700;2023-04-09T14:41:53;3.80;;;2.70;;
63012;SDS011;62113;45.624;11.700;2023-04-09T14:44:20;3.13;;;2.58;;
63012;SDS011;62113;45.624;11.700;2023-04-09T14:46:48;2.88;;;2.40;;
63012;SDS011;62113;45.624;11.700;2023-04-09T14:49:13;3.63;;;2.67;;
63012;SDS011;62113;45.624;11.700;2023-04-09T14:51:39;5.07;;;2.67;;
63012;SDS011;62113;45.624;11.700;2023-04-09T14:54:04;2.83;;;2.53;;
63012;SDS011;62113;45.624;11.700;2023-04-09T14:56:30;2.50;;;2.30;;
63012;SDS011;62113;45.624;11.700;2023-04-09T14:58:56;3.30;;;2.70;;
63012;SDS011;62113;45.624;11.700;2023-04-09T15:01:21;2.83;;;2.50;;
63012;SDS011;62113;45.624;11.700;2023-04-09T15:03:47;2.97;;;2.67;;
63012;SDS011;62113;45.624;11.700;2023-04-09T15:06:13;6.73;;;3.10;;
63012;SDS011;62113;45.624;11.700;2023-04-09T15:08:38;6.50;;;3.40;;
63012;SDS011;62113;45.624;11.700;2023-04-09T15:11:04;3.40;;;3.07;;
63012;SDS011;62113;45.624;11.700;2023-04-09T15:13:30;3.87;;;3.23;;
63012;SDS011;62113;45.624;11.700;2023-04-09T15:15:55;5.43;;;2.90;;
63012;SDS011;62113;45.624;11.700;2023-04-09T15:18:21;3.40;;;3.10;;
63012;SDS011;62113;45.624;11.700;2023-04-09T15:20:46;4.07;;;2.90;;